Terminal Aerodrome Forecast
Issued by NWS

Home | Current Version | Previous Version | Text Only | Print | Product List | Glossary On
Versions: 1 2 3 4 5 6 7 8 9 10 11 12 13 14 15 16 17 18 19
000
FTUS46 KMTR 280500
TAFMRY
TAF
KMRY 280520Z 2806/2906 20003KT P6SM OVC005
     FM281700 27006KT P6SM SCT008 SCT200
     FM281900 29008KT P6SM SCT200
     FM290300 24005KT P6SM BKN008=

USA.gov is the U.S. government's official web portal to all federal, state and local government web resources and services.